Station: CAPE WILLOUGHBY

  Atmospheric Gas Attenuation - ITU Rec 676-11   --------------- db/100km ---------------
Date Time Temp RH % AH g/m3 Dew Point Wind Direction Speed kph Gust kph Barometer mB Rainfall Since 9am 24GHz 47GHz 76GHz 122GHz 134GHz 241GHz
17 07:10 12.6 73 8.08 7.9 15 17 1013.1 0.4 18.5 25.4 38.3 100.4 93.0 319.5
17 07:00 12.6 74 8.19 8.1 13 15 1027.9 0.4 18.8 26.1 39.4 103.1 95.6 328.5
17 06:50 12.6 74 8.19 8.1 13 13 1013.1 0.4 18.8 25.6 38.7 101.6 94.5 324.5
17 06:40 12.5 74 8.14 8 15 17 1013.1 0.4 18.7 25.5 38.6 101.2 93.9 322.6
17 06:30 12.6 74 8.19 8.1 13 15 1027.7 0.4 18.8 26.1 39.4 103.1 95.6 328.4
17 06:20 12.7 73 8.13 8 9 11 1013.1 0.4 18.6 25.4 38.4 100.8 93.5 321.4
17 06:10 12.7 73 8.13 8 11 13 1013.1 0.4 18.6 25.4 38.4 100.8 93.5 321.4
17 06:00 12.7 72 8.02 7.8 11 13 1027.5 0.4 18.4 25.8 38.6 101.1 93.2 320.0
17 05:50 13.2 70 8.04 7.8 9 11 1013.1 0.4 18.4 25.2 37.8 99.2 91.8 315.2
17 05:40 12.9 72 8.12 8.1 17 19 1013.1 0.4 18.6 25.4 38.3 100.5 93.2 320.1
17 05:20 12.9 71 8 7.9 13 15 1013.1 0.4 18.3 25.2 37.8 99.2 91.6 314.6
17 04:50 12.8 72 8.07 8 19 20 1013.1 0.4 18.5 25.3 38.2 100.1 92.6 318.2
17 04:40 12.7 73 8.13 8 11 15 1013.1 0.4 18.6 25.4 38.4 100.8 93.5 321.4
17 04:30 12.7 73 8.13 8 11 13 1027 0.4 18.6 26.0 39.1 102.3 94.6 325.0
17 04:20 12.7 73 8.13 8 13 15 1013.1 0.4 18.6 25.4 38.4 100.8 93.5 321.4
17 04:10 12.7 73 8.13 8 13 13 1013.1 0.4 18.6 25.4 38.4 100.8 93.5 321.4
17 04:00 12.7 72 8.02 7.8 9 15 1026.9 0.4 18.4 25.8 38.6 101.1 93.2 319.9
17 03:50 13.2 70 8.04 7.8 9 9 1013.1 0.4 18.4 25.2 37.8 99.2 91.8 315.2
17 03:40 13.1 70 7.99 7.7 7 7 1013.1 0.4 18.3 25.1 37.7 98.8 91.2 313.3
17 03:30 13.2 70 8.04 7.9 9 17 1027 0.4 18.4 25.7 38.5 100.7 92.8 318.8
17 03:20 13.4 68 7.91 7.6 13 15 1013.1 0.4 18.1 24.9 37.2 97.6 89.8 308.5
17 03:10 14.2 66 8.06 7.9 24 26 1013.1 0.4 18.4 24.9 37.5 98.2 90.9 312.1
17 03:00 14.1 66 8.01 7.9 22 30 1026.9 0.4 18.3 25.4 37.9 99.2 91.4 313.8
17 02:50 14.1 66 8.01 8 30 32 1013.1 0.4 18.3 24.9 37.3 97.8 90.3 310.3
17 02:40 13.5 71 8.31 8.3 13 19 1013.1 0.4 19.0 25.5 38.8 101.7 94.9 326.4
17 02:30 13.4 71 8.25 8.3 11 20 1027 0.4 18.8 26.0 39.2 102.7 95.4 327.7
17 02:20 13.4 70 8.14 8 9 11 1013.1 0.4 18.6 25.3 38.2 100.1 92.8 319.0
17 02:10 14.1 70 8.5 8.7 28 32 1013.1 0.4 19.4 25.6 39.2 103.0 96.7 332.6
17 02:00 13.4 72 8.37 8.5 13 22 1026.9 0.4 19.1 26.2 39.7 103.9 97.0 333.3
17 01:50 12.8 73 8.18 8.2 13 15 1013.1 0.4 18.7 25.5 38.6 101.2 94.1 323.3
17 01:40 12.6 75 8.3 8.3 15 15 1013.1 0.4 19.0 25.7 39.2 102.8 95.9 329.6
17 01:30 12.7 75 8.35 8.4 15 17 1026.8 0.4 19.1 26.3 39.9 104.6 97.6 335.3
17 01:20 12.7 74 8.24 8.3 15 17 1013.1 0.4 18.9 25.6 38.9 102.0 95.0 326.4
17 01:10 12.8 73 8.18 8.2 9 11 1013.1 0.4 18.7 25.5 38.6 101.2 94.1 323.3
17 01:00 12.9 74 8.34 8.4 15 19 1026.9 0.4 19.1 26.2 39.8 104.3 97.2 334.0
17 00:50 12.9 73 8.23 8.3 17 19 1013.1 0.4 18.8 25.5 38.8 101.6 94.6 325.2
17 00:40 13 73 8.28 8.4 15 19 1013.1 0.4 18.9 25.6 38.9 102.1 95.2 327.1
17 00:30 12.9 74 8.34 8.4 17 20 1026.9 0.4 19.1 26.2 39.8 104.3 97.2 334.0
17 00:20 12.9 74 8.34 8.5 17 19 1013.1 0.4 19.1 25.7 39.2 102.8 96.1 330.2
17 00:10 12.9 74 8.34 8.5 17 19 1013.1 0.4 19.1 25.7 39.2 102.8 96.1 330.2
17 00:00 12.9 74 8.34 8.4 13 17 1026.9 0.4 19.1 26.2 39.8 104.3 97.2 334.0
16 23:50 13.1 72 8.22 8.3 11 15 1013.1 0.4 18.8 25.5 38.6 101.3 94.2 323.9
16 23:40 13.3 70 8.09 7.9 9 9 1013.1 0.4 18.5 25.2 38.0 99.6 92.3 317.1
16 23:30 13.4 70 8.14 8 15 22 1027 0.4 18.6 25.8 38.8 101.5 93.9 322.6
16 23:20 12.8 75 8.4 8.6 19 22 1013.1 0.4 19.2 25.9 39.5 103.6 97.0 333.5
16 23:10 12.9 78 8.79 9.1 13 15 1013.1 0.4 20.0 26.5 41.0 107.7 102.1 351.3
16 23:00 13 78 8.85 9.3 13 15 1027 0.4 20.1 27.1 41.9 109.7 103.9 357.6
16 22:50 13 78 8.85 9.2 15 17 1013.1 0.4 20.2 26.5 41.2 108.2 102.8 353.7
16 22:40 13 78 8.85 9.2 17 19 1013.1 0.4 20.2 26.5 41.2 108.2 102.8 353.7
16 22:30 13.3 76 8.78 9.2 15 17 1027.1 0.4 20.0 26.9 41.4 108.5 102.6 353.0
16 22:20 13.4 74 8.6 8.8 17 19 1013.1 0.4 19.6 26.0 40.0 105.0 98.9 340.2
16 22:10 14.3 67 8.23 8.2 6 7 1013.1 0.4 18.8 25.2 38.1 99.9 92.9 319.4
16 22:00 14.6 63 7.88 7.6 26 37 1027.1 0.4 18.0 25.0 37.2 97.2 89.1 306.0
16 21:50 14.4 63 7.79 7.4 33 39 1013.1 0.4 17.8 24.4 36.3 95.2 87.2 299.3
16 21:40 14.3 65 7.99 7.8 28 33 1013.1 0.4 18.3 24.8 37.1 97.4 89.8 308.6
16 21:30 14.1 67 8.13 8.1 20 28 1027.2 0.4 18.6 25.6 38.4 100.5 93.0 319.4
16 21:20 13.7 68 8.05 7.9 22 26 1013.1 0.4 18.4 25.0 37.7 98.7 91.3 313.7
16 21:10 13.8 70 8.34 8.4 20 26 1013.1 0.4 19.0 25.5 38.8 101.7 95.0 326.5
16 21:00 13.9 76 9.11 9.7 19 30 1027.1 0.4 20.7 27.2 42.5 111.3 106.3 365.9
16 20:50 12.7 81 9.02 9.5 19 22 1013.1 0.4 20.5 26.9 42.1 110.5 105.5 363.1
16 20:40 12.6 85 9.4 10.1 9 11 1013.1 0.4 21.4 27.6 43.7 114.9 110.8 381.8
16 20:30 12.5 86 9.46 10.2 13 19 1027.1 0.4 21.5 28.3 44.7 117.3 113.1 389.5
16 20:20 12.6 86 9.52 10.3 13 15 1013.1 0.4 21.6 27.8 44.2 116.2 112.5 387.6
16 20:10 12.7 87 9.69 10.6 15 17 1013.1 0.4 22.0 28.0 44.9 118.0 114.7 395.4
16 20:00 12.8 86 9.63 10.5 15 20 1027 0.4 21.8 28.4 45.2 118.8 115.0 396.3
16 19:50 13.1 84 9.59 10.4 15 17 1013.1 0.4 21.7 27.7 44.2 116.3 112.7 388.5
16 19:40 13.2 82 9.42 10.2 19 20 1013.1 0.4 21.4 27.4 43.5 114.2 110.2 379.8
16 19:30 13.5 84 9.83 10.9 22 30 1026.9 0.4 22.2 28.6 45.7 119.9 116.7 402.5
16 19:20 13 86 9.75 10.8 19 22 1013.1 0.4 22.1 28.0 45.0 118.2 115.1 396.8
16 19:10 13 89 10.09 11.2 17 20 1013.1 0.4 22.8 28.6 46.4 122.1 119.9 413.4
16 19:00 12.6 89 9.85 10.8 13 20 1026.7 0.4 22.3 28.9 46.3 121.6 118.4 408.1
16 18:50 12.6 89 9.85 10.8 17 20 1013.1 0.4 22.3 28.3 45.6 120.0 117.1 403.7
16 18:40 12.4 90 9.83 10.8 20 24 1013.1 0.4 22.3 28.4 45.7 120.1 117.1 403.8
16 18:30 12.6 89 9.85 10.8 22 32 1026.7 0.4 22.3 28.9 46.3 121.6 118.4 408.1
16 18:20 13.1 82 9.36 10.2 33 39 1013.1 0.2 21.3 27.4 43.3 113.7 109.6 377.4
16 18:10 13.6 84 9.89 10.9 26 30 1013.1 0 22.4 28.1 45.2 118.9 116.1 400.5
16 18:00 13.8 84 10.01 11.1 32 46 1026.1 0 22.6 28.7 46.2 121.4 118.7 409.4
16 17:50 14.6 79 9.89 11 37 43 1013.1 0 22.3 27.8 44.6 117.4 114.6 395.4
16 17:40 14.5 73 9.08 9.7 32 37 1013.1 0 20.6 26.5 41.4 108.6 103.8 357.6
16 17:30 14.8 75 9.5 10.4 33 44 1025.8 0 21.4 27.5 43.5 114.2 110.2 379.7
16 17:20 14.9 74 9.43 10.3 32 37 1013.1 0 21.3 26.9 42.6 111.9 108.0 372.1
16 17:10 15.1 76 9.8 10.9 32 37 1013.1 0 22.1 27.5 44.0 115.6 112.7 388.6
16 17:00 15.7 72 9.63 10.7 22 41 1025.4 0 21.7 27.5 43.5 114.3 110.6 381.4
16 16:50 15.5 65 8.59 8.9 19 20 1013.1 0 19.5 25.4 38.9 102.1 96.1 330.8
16 16:40 15.6 64 8.51 8.8 22 26 1013.1 0 19.3 25.2 38.5 101.1 95.0 326.8
16 16:30 15.3 64 8.36 8.7 28 33 1013.1 0 19.0 25.1 38.1 100.0 93.4 321.2
16 16:20 15.4 63 8.28 8.4 32 35 1013.1 0 18.8 24.9 37.7 99.0 92.3 317.3
16 16:10 15.8 62 8.35 8.7 28 35 1013.1 0 19.0 24.9 37.8 99.2 92.7 318.8
16 16:00 15.9 63 8.53 8.9 30 39 1025.4 0 19.3 25.6 39.0 102.2 95.8 329.7
16 15:50 16.1 64 8.77 9.3 33 37 1013.1 0 19.8 25.5 39.3 103.2 97.7 336.4
16 15:40 15.6 65 8.64 9.2 33 37 1013.1 0 19.6 25.4 39.1 102.5 96.7 332.6
16 15:30 15.7 68 9.1 9.8 32 43 1025.2 0 20.5 26.6 41.4 108.5 103.5 356.6
16 15:20 16.2 69 9.51 10.5 30 35 1013.1 0 21.4 26.7 42.2 110.9 107.2 369.7
16 15:10 16.1 66 9.05 9.9 33 37 1013.1 0 20.4 25.9 40.4 106.1 101.3 349.1
16 15:00 16.3 62 8.6 9 32 41 1025.1 0 19.5 25.6 39.1 102.4 96.2 331.1
16 14:50 16.5 63 8.85 9.4 32 35 1013.1 0 20.0 25.5 39.4 103.5 98.2 338.3
16 14:40 16.4 62 8.65 9.1 33 37 1013.1 0 19.6 25.2 38.7 101.6 95.8 329.7
16 14:30 16.7 63 8.95 9.6 32 41 1025 0 20.2 26.1 40.3 105.5 100.2 345.2
16 14:20 16.8 57 8.15 8.2 32 39 1013.1 0 18.5 24.3 36.6 96.0 89.0 306.0
16 14:10 16.8 55 7.86 7.9 33 41 1013.1 0 17.9 23.9 35.5 93.0 85.4 293.4

Last Refresh: 17-May-2021 07:26:04

Bureau of Meteorology